createdAt,value
2023-05-03T00:03:55.709Z,21.99
2023-05-03T00:08:57.152Z,22.01
2023-05-03T00:13:58.541Z,22.00
2023-05-03T00:18:59.916Z,22.00
2023-05-03T00:24:01.291Z,21.99
2023-05-03T00:29:02.702Z,21.99
2023-05-03T00:34:04.110Z,22.01
2023-05-03T00:39:05.505Z,22.00
2023-05-03T00:44:06.958Z,22.00
2023-05-03T00:49:09.408Z,22.00
2023-05-03T00:54:10.840Z,22.00
2023-05-03T00:59:12.353Z,22.01
2023-05-03T01:04:13.739Z,22.01
2023-05-03T01:09:24.178Z,22.02
2023-05-03T01:14:32.922Z,22.02
2023-05-03T01:19:36.203Z,22.00
2023-05-03T01:24:38.626Z,22.01
2023-05-03T01:29:40.036Z,22.00
2023-05-03T01:35:13.313Z,22.01
2023-05-03T01:40:16.775Z,22.00
2023-05-03T01:45:18.471Z,21.99
2023-05-03T01:50:19.890Z,21.97
2023-05-03T01:55:21.301Z,21.99
2023-05-03T02:00:22.707Z,22.00
2023-05-03T02:05:24.098Z,22.00
2023-05-03T02:10:25.586Z,21.98
2023-05-03T02:15:27.011Z,21.98
2023-05-03T02:20:28.730Z,21.99
2023-05-03T02:25:30.214Z,21.97
2023-05-03T02:30:31.939Z,21.96
2023-05-03T02:35:33.649Z,21.96
2023-05-03T02:40:35.066Z,21.99
2023-05-03T02:45:36.744Z,21.97
2023-05-03T02:50:38.871Z,21.97
2023-05-03T02:55:40.261Z,21.99
2023-05-03T03:00:41.735Z,22.00
2023-05-03T03:05:43.110Z,22.00
2023-05-03T03:10:44.498Z,22.00
2023-05-03T03:15:46.151Z,22.02
2023-05-03T03:20:47.619Z,21.98
2023-05-03T03:25:49.000Z,22.01
2023-05-03T03:30:50.477Z,22.02
2023-05-03T03:35:51.882Z,21.99
2023-05-03T03:40:54.301Z,22.01
2023-05-03T03:45:55.685Z,21.98
2023-05-03T03:50:57.119Z,22.02
2023-05-03T03:55:58.499Z,22.00
2023-05-03T04:01:00.618Z,21.99
2023-05-03T04:06:02.029Z,21.98
2023-05-03T04:11:03.569Z,21.99
2023-05-03T04:16:06.443Z,22.00
2023-05-03T04:21:08.019Z,22.01
2023-05-03T04:26:17.064Z,22.02
2023-05-03T04:31:25.360Z,21.99
2023-05-03T04:36:29.683Z,22.01
2023-05-03T04:41:31.418Z,22.02
2023-05-03T04:46:32.846Z,22.02
2023-05-03T04:51:34.249Z,22.01
2023-05-03T04:56:35.927Z,22.00
2023-05-03T05:01:37.342Z,22.03
2023-05-03T05:06:38.895Z,22.04
2023-05-03T05:11:40.360Z,22.04
2023-05-03T05:16:41.817Z,22.01
2023-05-03T05:21:43.288Z,22.04
2023-05-03T05:26:44.705Z,22.04
2023-05-03T05:31:46.357Z,22.02
2023-05-03T05:36:47.873Z,22.04
2023-05-03T05:41:49.462Z,22.04
2023-05-03T05:46:50.988Z,22.02
2023-05-03T05:51:52.400Z,22.06
2023-05-03T05:56:53.789Z,22.05
2023-05-03T06:01:55.316Z,22.08
2023-05-03T06:06:56.782Z,22.05
2023-05-03T06:11:58.170Z,22.07
2023-05-03T06:17:00.606Z,22.06
2023-05-03T06:22:02.401Z,22.08
2023-05-03T06:27:03.946Z,22.14
2023-05-03T06:32:05.637Z,22.26
2023-05-03T06:37:07.009Z,22.28
2023-05-03T06:42:08.395Z,22.31
2023-05-03T06:47:09.830Z,22.37
2023-05-03T06:52:11.790Z,22.32
2023-05-03T06:57:13.493Z,22.31
2023-05-03T07:02:15.034Z,22.30
2023-05-03T07:07:16.694Z,22.26
2023-05-03T07:12:18.169Z,22.20
2023-05-03T07:17:19.585Z,22.24
2023-05-03T07:22:24.518Z,22.23
2023-05-03T07:27:26.661Z,22.17
2023-05-03T07:32:28.120Z,22.19
2023-05-03T07:37:29.536Z,22.17
2023-05-03T07:42:31.156Z,22.17
2023-05-03T07:47:35.228Z,22.14
2023-05-03T07:52:37.111Z,22.17
2023-05-03T07:57:38.493Z,22.17
2023-05-03T08:02:40.117Z,22.19
2023-05-03T08:07:41.978Z,22.26
2023-05-03T08:12:43.476Z,22.32
2023-05-03T08:17:45.276Z,22.31
2023-05-03T08:22:47.108Z,22.36
2023-05-03T08:27:49.151Z,22.42
2023-05-03T08:32:51.399Z,22.42
2023-05-03T08:37:52.899Z,22.46
2023-05-03T08:42:55.222Z,22.54
2023-05-03T08:47:56.682Z,22.55
2023-05-03T08:52:58.899Z,22.58
2023-05-03T08:58:00.549Z,22.62
2023-05-03T09:03:02.180Z,22.60
2023-05-03T09:08:11.033Z,22.59
2023-05-03T09:13:12.423Z,22.53
2023-05-03T09:18:18.629Z,22.48
2023-05-03T09:23:29.604Z,22.45
2023-05-03T09:28:40.549Z,22.45
2023-05-03T09:33:42.150Z,22.43
2023-05-03T09:38:43.839Z,22.44
2023-05-03T09:43:52.158Z,22.37
2023-05-03T09:48:57.180Z,22.38
2023-05-03T09:53:58.774Z,22.38
2023-05-03T09:59:00.184Z,22.40
2023-05-03T10:04:01.614Z,22.40
2023-05-03T10:09:20.618Z,22.40
2023-05-03T10:14:22.044Z,22.49
2023-05-03T10:19:32.152Z,22.54
2023-05-03T10:24:34.420Z,22.58
2023-05-03T10:29:46.007Z,22.58
2023-05-03T10:34:47.451Z,22.64
2023-05-03T10:39:48.839Z,22.69
2023-05-03T10:44:54.025Z,22.71
2023-05-03T10:50:24.794Z,22.78
2023-05-03T10:55:26.638Z,22.77
2023-05-03T11:00:37.393Z,22.80
2023-05-03T11:05:38.959Z,22.79
2023-05-03T11:10:40.690Z,22.79
2023-05-03T11:15:42.235Z,22.74
2023-05-03T11:20:43.687Z,22.69
2023-05-03T11:25:45.062Z,22.65
2023-05-03T11:30:46.495Z,22.61
2023-05-03T11:35:47.925Z,22.56
2023-05-03T11:40:49.310Z,22.54
2023-05-03T11:45:50.772Z,22.52
2023-05-03T11:50:55.608Z,22.49
2023-05-03T11:55:57.085Z,22.46
2023-05-03T12:00:58.472Z,22.47
2023-05-03T12:06:00.652Z,22.49
2023-05-03T12:11:06.330Z,22.59
2023-05-03T12:26:22.488Z,22.79
2023-05-03T12:31:24.350Z,22.85
2023-05-03T12:36:26.474Z,22.90
2023-05-03T12:41:52.695Z,22.97
2023-05-03T12:46:53.398Z,23.02
2023-05-03T12:52:22.634Z,23.01
2023-05-03T12:57:23.688Z,23.10
2023-05-03T13:07:31.778Z,23.09
2023-05-03T13:12:36.231Z,23.14
2023-05-03T13:17:37.759Z,23.12
2023-05-03T13:22:39.211Z,23.14
2023-05-03T13:27:41.057Z,23.17
2023-05-03T13:32:42.511Z,23.15
2023-05-03T13:37:44.361Z,23.17
2023-05-03T13:42:45.751Z,23.15
2023-05-03T13:48:10.491Z,23.14
2023-05-03T13:53:08.464Z,23.13
2023-05-03T13:58:09.864Z,23.17
2023-05-03T14:03:11.950Z,23.20
2023-05-03T14:08:13.557Z,23.17
2023-05-03T14:13:14.993Z,23.21
2023-05-03T14:18:16.531Z,23.21
2023-05-03T14:23:17.980Z,23.24
2023-05-03T14:28:19.492Z,23.23
2023-05-03T14:33:21.211Z,23.15
2023-05-03T14:38:22.669Z,23.06
2023-05-03T14:43:24.057Z,23.01
2023-05-03T14:48:25.713Z,22.92
2023-05-03T14:53:27.143Z,22.84
2023-05-03T14:58:28.548Z,22.82
2023-05-03T15:03:30.452Z,22.81
2023-05-03T15:08:32.012Z,22.76
2023-05-03T15:13:34.030Z,22.68
2023-05-03T15:18:36.009Z,22.63
2023-05-03T15:23:37.378Z,22.65
2023-05-03T15:28:38.770Z,22.63
2023-05-03T15:33:41.639Z,22.57
2023-05-03T15:38:43.047Z,22.49
2023-05-03T15:43:47.175Z,22.52
2023-05-03T15:48:48.556Z,22.52
2023-05-03T15:53:49.930Z,22.50
2023-05-03T15:58:51.461Z,22.43
2023-05-03T16:03:52.880Z,22.46
2023-05-03T16:08:54.254Z,22.47
2023-05-03T16:13:55.632Z,22.43
2023-05-03T16:18:57.184Z,22.40
2023-05-03T16:23:58.787Z,22.42
2023-05-03T16:29:00.822Z,22.44
2023-05-03T16:34:02.610Z,22.38
2023-05-03T16:39:04.330Z,22.38
2023-05-03T16:44:06.141Z,22.35
2023-05-03T16:49:07.542Z,22.34
2023-05-03T16:54:09.034Z,22.34
2023-05-03T16:59:10.493Z,22.35
2023-05-03T17:04:12.231Z,22.36
2023-05-03T17:09:13.895Z,22.37
2023-05-03T17:14:15.382Z,22.33
2023-05-03T17:19:18.003Z,22.29
2023-05-03T17:24:19.526Z,22.35
2023-05-03T17:29:21.468Z,22.32
2023-05-03T17:34:24.775Z,22.30
2023-05-03T17:39:28.189Z,22.30
2023-05-03T17:44:29.575Z,22.26
2023-05-03T17:49:33.860Z,22.27
2023-05-03T17:54:35.458Z,22.23
2023-05-03T17:59:36.855Z,22.21
2023-05-03T18:04:38.222Z,22.20
2023-05-03T18:09:39.594Z,22.18
2023-05-03T18:14:40.975Z,22.16
2023-05-03T18:19:45.809Z,22.14
2023-05-03T18:24:47.230Z,22.13
2023-05-03T18:29:48.803Z,22.16
2023-05-03T18:34:50.299Z,22.13
2023-05-03T18:39:51.697Z,22.12
2023-05-03T18:44:53.480Z,22.12
2023-05-03T18:49:54.870Z,22.09
2023-05-03T18:54:56.448Z,22.06
2023-05-03T19:00:01.205Z,22.07
2023-05-03T19:05:03.060Z,22.06
2023-05-03T19:10:05.041Z,22.05
2023-05-03T19:15:07.110Z,22.03
2023-05-03T19:20:09.933Z,22.03
2023-05-03T19:25:11.357Z,21.98
2023-05-03T19:30:13.008Z,22.03
2023-05-03T19:35:14.641Z,22.00
2023-05-03T19:40:16.047Z,21.99
2023-05-03T19:45:17.459Z,22.01
2023-05-03T19:50:18.834Z,21.99
2023-05-03T19:55:20.380Z,21.98
2023-05-03T20:00:23.079Z,21.95
2023-05-03T20:05:24.467Z,21.99
2023-05-03T20:10:26.006Z,21.94
2023-05-03T20:15:28.330Z,21.91
2023-05-03T20:20:30.617Z,21.91
2023-05-03T20:25:32.030Z,21.92
2023-05-03T20:30:34.530Z,21.90
2023-05-03T20:35:38.676Z,21.85
2023-05-03T20:40:40.054Z,21.84
2023-05-03T20:45:41.601Z,21.84
2023-05-03T20:50:43.509Z,21.83
2023-05-03T20:55:44.891Z,21.81
2023-05-03T21:00:46.288Z,21.85
2023-05-03T21:05:47.742Z,21.84
2023-05-03T21:10:49.125Z,21.84
2023-05-03T21:15:53.411Z,21.89
2023-05-03T21:20:54.859Z,21.91
2023-05-03T21:25:56.556Z,21.90
2023-05-03T21:30:58.041Z,21.94
2023-05-03T21:36:00.156Z,21.96
2023-05-03T21:41:04.008Z,21.95
2023-05-03T21:46:08.644Z,21.98
2023-05-03T21:51:17.608Z,21.99
2023-05-03T21:56:18.995Z,22.00
2023-05-03T22:01:21.519Z,21.99
2023-05-03T22:06:22.950Z,22.01
2023-05-03T22:11:24.325Z,22.02
2023-05-03T22:16:25.741Z,22.00
2023-05-03T22:21:27.338Z,22.03
2023-05-03T22:26:29.606Z,22.04
2023-05-03T22:31:31.417Z,22.02
2023-05-03T22:36:33.079Z,22.02
2023-05-03T22:41:34.598Z,22.01
2023-05-03T22:46:36.112Z,22.03
2023-05-03T22:51:38.331Z,22.02
2023-05-03T22:56:39.715Z,22.03
2023-05-03T23:01:41.481Z,22.02
2023-05-03T23:06:42.870Z,22.00
2023-05-03T23:11:44.246Z,22.01
2023-05-03T23:16:46.374Z,22.00
2023-05-03T23:21:48.042Z,21.97
2023-05-03T23:26:49.446Z,21.99
2023-05-03T23:31:51.325Z,22.01
2023-05-03T23:36:53.521Z,22.01
2023-05-03T23:41:54.934Z,21.99
2023-05-03T23:46:56.304Z,22.03
2023-05-03T23:51:57.701Z,22.01
2023-05-03T23:56:59.516Z,21.97
